Time;durP1;ratioP1;P1;durP2;ratioP2;P2;SDS_P1;SDS_P2;PMS_P1;PMS_P2;Temp;Humidity;BMP_temperature;BMP_pressure;BME280_temperature;BME280_humidity;BME280_pressure;Samples;Min_cycle;Max_cycle;Signal;HPM_P1;HPM_P2
2021/12/25 00:00:21;;;;;;;7.60;4.68;;;;;;;4.26;100.00;100293.72;2098119;28;20034;-69
2021/12/25 00:01:21;;;;;;;6.65;4.63;;;;;;;4.25;100.00;100297.19;2098054;28;20038;-68
2021/12/25 00:02:22;;;;;;;7.60;5.28;;;;;;;4.26;100.00;100296.28;2098229;28;20031;-68
2021/12/25 00:03:23;;;;;;;7.50;5.20;;;;;;;4.25;100.00;100294.59;2098235;28;20024;-68
2021/12/25 00:04:23;;;;;;;6.27;4.73;;;;;;;4.24;100.00;100298.91;2098175;28;20016;-68
2021/12/25 00:05:23;;;;;;;8.27;5.43;;;;;;;4.24;100.00;100292.88;2098079;28;20025;-68
2021/12/25 00:06:24;;;;;;;6.73;5.07;;;;;;;4.24;100.00;100298.06;2089236;28;20461;-67
2021/12/25 00:07:24;;;;;;;8.85;5.47;;;;;;;4.22;100.00;100294.69;2089348;28;20394;-67
2021/12/25 00:08:27;;;;;;;7.07;5.20;;;;;;;4.21;100.00;100293.81;2098114;28;20052;-68
2021/12/25 00:09:27;;;;;;;9.35;5.90;;;;;;;4.21;100.00;100288.66;2098111;28;20119;-68
2021/12/25 00:10:30;;;;;;;9.00;5.50;;;;;;;4.21;100.00;100293.00;2098141;28;20086;-68
2021/12/25 00:11:30;;;;;;;6.72;5.32;;;;;;;4.21;100.00;100301.56;2098085;28;20027;-68
2021/12/25 00:12:31;;;;;;;8.33;5.77;;;;;;;4.21;100.00;100300.75;2098047;28;20021;-67
2021/12/25 00:13:32;;;;;;;9.38;5.78;;;;;;;4.19;100.00;100294.75;2098086;28;20341;-68
2021/12/25 00:14:32;;;;;;;8.27;5.40;;;;;;;4.20;100.00;100299.03;2098100;28;20433;-68
2021/12/25 00:15:32;;;;;;;8.23;5.47;;;;;;;4.20;100.00;100291.28;2098076;28;20025;-68
2021/12/25 00:16:33;;;;;;;10.03;6.07;;;;;;;4.20;100.00;100292.13;2098091;28;20024;-67
2021/12/25 00:17:34;;;;;;;7.67;5.73;;;;;;;4.20;100.00;100296.44;2098019;28;20029;-68
2021/12/25 00:18:35;;;;;;;8.80;6.10;;;;;;;4.19;100.00;100294.75;2098028;28;20031;-68
2021/12/25 00:19:36;;;;;;;8.05;5.60;;;;;;;4.19;100.00;100295.59;2097972;28;20502;-68
2021/12/25 00:20:36;;;;;;;8.87;5.60;;;;;;;4.18;100.00;100293.88;2098079;28;20032;-69
2021/12/25 00:21:37;;;;;;;8.10;6.10;;;;;;;4.19;100.00;100299.91;2098095;28;20103;-69
2021/12/25 00:22:37;;;;;;;9.27;6.30;;;;;;;4.19;100.00;100287.00;2098083;28;20024;-68
2021/12/25 00:23:39;;;;;;;8.63;5.73;;;;;;;4.20;100.00;100288.69;2098168;28;20377;-68
2021/12/25 00:24:43;;;;;;;;;;;;;;;4.19;100.00;100293.03;2098533;28;20021;-68
2021/12/25 00:25:49;;;;;;;10.07;6.03;;;;;;;4.19;100.00;100289.59;2098067;28;19908;-67
2021/12/25 00:27:02;;;;;;;8.07;5.75;;;;;;;4.19;100.00;100289.59;2088998;28;20017;-68
2021/12/25 00:28:19;;;;;;;8.00;5.38;;;;;;;4.19;100.00;100289.59;2083374;28;20161;-68
2021/12/25 00:30:29;;;;;;;8.67;5.93;;;;;;;4.17;100.00;100275.88;2090886;28;20095;-68
2021/12/25 00:31:45;;;;;;;9.45;5.65;;;;;;;4.17;100.00;100281.03;2090625;28;20554;-68
2021/12/25 00:32:52;;;;;;;10.18;6.20;;;;;;;4.15;100.00;100278.50;2092932;28;20029;-69
2021/12/25 00:33:59;;;;;;;9.45;6.10;;;;;;;4.17;100.00;100278.44;2099513;28;20028;-69
2021/12/25 00:35:00;;;;;;;10.23;6.05;;;;;;;4.17;100.00;100275.88;2099464;28;20020;-69
2021/12/25 00:36:01;;;;;;;10.05;7.15;;;;;;;4.16;100.00;100279.31;2099595;28;20024;-69
2021/12/25 00:37:02;;;;;;;12.00;6.97;;;;;;;4.14;100.00;100270.78;2099444;28;20052;-69
2021/12/25 00:38:02;;;;;;;11.07;7.20;;;;;;;4.15;100.00;100281.06;2090617;28;20035;-68
2021/12/25 00:39:03;;;;;;;10.05;6.60;;;;;;;4.16;100.00;100276.75;2090788;28;20498;-67
2021/12/25 00:40:04;;;;;;;10.27;6.93;;;;;;;4.16;100.00;100276.75;2099557;28;20027;-68
2021/12/25 00:41:04;;;;;;;;;;;;;;;4.18;100.00;100280.97;2099851;28;20044;-68
2021/12/25 00:42:06;;;;;;;8.68;5.60;;;;;;;4.17;100.00;100281.03;2099475;28;19908;-69
2021/12/25 00:43:06;;;;;;;10.85;6.65;;;;;;;4.16;100.00;100274.16;2099526;28;20025;-68
2021/12/25 00:44:07;;;;;;;10.60;7.80;;;;;;;4.15;100.00;100273.31;2099497;28;20029;-68
2021/12/25 00:45:08;;;;;;;9.38;6.57;;;;;;;4.16;100.00;100282.75;2099446;28;20494;-68
2021/12/25 00:46:09;;;;;;;9.15;6.18;;;;;;;4.16;100.00;100280.19;2099403;28;20496;-69
2021/12/25 00:47:09;;;;;;;11.25;6.85;;;;;;;4.15;100.00;100283.66;2099515;28;20098;-69
2021/12/25 00:48:09;;;;;;;8.50;6.27;;;;;;;4.14;100.00;100281.94;2099506;28;20094;-68
2021/12/25 00:49:10;;;;;;;10.43;6.40;;;;;;;4.14;100.00;100287.09;2099514;28;20028;-69
2021/12/25 00:50:10;;;;;;;9.73;6.50;;;;;;;4.15;100.00;100282.78;2099493;28;20028;-68
2021/12/25 00:51:10;;;;;;;11.35;7.20;;;;;;;4.14;100.00;100281.09;2099426;28;20078;-68
2021/12/25 00:52:11;;;;;;;10.23;6.83;;;;;;;4.12;100.00;100288.88;2099509;28;20553;-68
2021/12/25 00:53:11;;;;;;;10.27;6.30;;;;;;;4.14;100.00;100291.44;2090470;28;20100;-67
2021/12/25 00:54:12;;;;;;;11.23;6.87;;;;;;;4.14;100.00;100296.59;2090591;28;20031;-68
2021/12/25 00:55:13;;;;;;;8.80;6.55;;;;;;;4.12;100.00;100289.75;2098748;28;20030;-68
2021/12/25 00:56:13;;;;;;;10.00;7.23;;;;;;;4.13;100.00;100290.56;2098843;28;20037;-68
2021/12/25 00:57:14;;;;;;;10.83;6.70;;;;;;;4.12;100.00;100289.75;2099376;28;20426;-68
2021/12/25 00:58:14;;;;;;;9.48;6.55;;;;;;;4.12;100.00;100283.72;2099377;28;20070;-68
2021/12/25 00:59:15;;;;;;;11.57;7.33;;;;;;;4.11;100.00;100288.03;2098739;28;20051;-67
2021/12/25 01:00:17;;;;;;;10.25;6.97;;;;;;;4.10;100.00;100286.34;2098685;28;20420;-67
2021/12/25 01:01:17;;;;;;;11.38;7.25;;;;;;;4.12;100.00;100287.16;2099394;28;20481;-68
2021/12/25 01:02:18;;;;;;;11.03;7.20;;;;;;;4.12;100.00;100287.16;2099415;28;20028;-67
2021/12/25 01:03:18;;;;;;;10.00;7.00;;;;;;;4.12;100.00;100288.88;2099412;28;20059;-68
2021/12/25 01:04:19;;;;;;;10.57;7.10;;;;;;;4.11;100.00;100293.19;2099376;28;20432;-67
2021/12/25 01:05:19;;;;;;;10.80;7.80;;;;;;;4.11;100.00;100288.03;2099413;28;20783;-68
2021/12/25 01:06:19;;;;;;;10.97;7.47;;;;;;;4.11;100.00;100284.63;2099375;28;20318;-68
2021/12/25 01:07:20;;;;;;;10.73;7.03;;;;;;;4.11;100.00;100288.03;2099412;28;20020;-68
2021/12/25 01:08:22;;;;;;;9.53;7.17;;;;;;;4.11;100.00;100287.19;2099426;28;20374;-69
2021/12/25 01:09:22;;;;;;;10.73;7.07;;;;;;;4.11;100.00;100288.03;2099285;28;20115;-69
2021/12/25 01:10:23;;;;;;;11.02;7.50;;;;;;;4.11;100.00;100287.19;2099315;28;20044;-69
2021/12/25 01:11:25;;;;;;;11.07;7.83;;;;;;;4.11;100.00;100288.03;2090438;28;20035;-69
2021/12/25 01:12:29;;;;;;;12.32;8.07;;;;;;;4.12;100.00;100284.59;2090263;28;20029;-68
2021/12/25 01:13:34;;;;;;;11.50;8.18;;;;;;;4.11;100.00;100293.19;2090828;28;20029;-69
2021/12/25 01:14:43;;;;;;;10.13;7.05;;;;;;;4.13;100.00;100290.56;2099363;28;20370;-68
2021/12/25 01:15:59;;;;;;;11.20;6.57;;;;;;;4.12;100.00;100289.75;2090415;28;20088;-68
2021/12/25 01:19:15;;;;;;;10.35;6.97;;;;;;;4.12;100.00;100284.59;2099451;28;20443;-69
2021/12/25 01:20:08;;;;;;;11.85;7.32;;;;;;;4.14;100.00;100283.69;2096941;28;20032;-68
2021/12/25 01:22:58;;;;;;;12.25;7.65;;;;;;;4.12;100.00;100273.41;2099348;28;20577;-68
2021/12/25 01:30:10;;;;;;;12.00;7.40;;;;;;;4.11;100.00;100277.69;2099223;28;20025;-68
2021/12/25 01:34:14;;;;;;;12.38;8.13;;;;;;;4.10;100.00;100276.00;2099262;28;20039;-68
2021/12/25 01:38:05;;;;;;;13.02;9.55;;;;;;;4.10;100.00;100281.19;2099123;28;20033;-69
2021/12/25 01:40:29;;;;;;;14.60;9.75;;;;;;;4.09;100.00;100274.31;2099195;28;20039;-69
2021/12/25 01:47:53;;;;;;;14.57;10.60;;;;;;;4.04;100.00;100270.97;2098958;28;20028;-67
2021/12/25 01:48:53;;;;;;;16.00;10.63;;;;;;;4.03;100.00;100274.47;2099018;28;20025;-67
2021/12/25 01:49:59;;;;;;;16.57;10.83;;;;;;;4.05;100.00;100271.84;2099039;28;20028;-68
2021/12/25 01:51:00;;;;;;;15.70;11.02;;;;;;;4.04;100.00;100265.81;2098985;28;20032;-69
2021/12/25 01:52:01;;;;;;;18.20;11.55;;;;;;;4.04;100.00;100270.97;2099045;28;20074;-69
2021/12/25 01:53:02;;;;;;;16.20;10.80;;;;;;;4.04;100.00;100276.16;2099003;28;20495;-69
2021/12/25 01:54:02;;;;;;;16.50;11.50;;;;;;;4.04;100.00;100276.16;2099050;28;20079;-69
2021/12/25 01:55:08;;;;;;;18.03;11.67;;;;;;;4.04;100.00;100272.75;2099003;28;20103;-68
2021/12/25 01:56:08;;;;;;;16.88;12.20;;;;;;;4.04;100.00;100273.56;2098976;28;20111;-68
2021/12/25 01:57:09;;;;;;;18.47;12.03;;;;;;;4.03;100.00;100274.47;2098983;28;20044;-69
2021/12/25 01:58:10;;;;;;;17.57;13.33;;;;;;;4.02;100.00;100266.75;2098946;28;20345;-68
2021/12/25 01:59:10;;;;;;;;;;;;;;;4.03;100.00;100271.88;2090486;28;20028;-68
2021/12/25 02:00:17;;;;;;;16.00;11.13;;;;;;;4.02;100.00;100272.78;2089947;28;19916;-69
2021/12/25 02:01:18;;;;;;;20.85;12.65;;;;;;;4.03;100.00;100274.47;2090022;28;20028;-69
2021/12/25 02:02:18;;;;;;;21.38;12.90;;;;;;;4.03;100.00;100273.63;2090024;28;20397;-68
2021/12/25 02:03:22;;;;;;;19.97;12.70;;;;;;;4.03;100.00;100269.28;2098924;28;20035;-68
2021/12/25 02:04:23;;;;;;;17.23;12.10;;;;;;;4.02;100.00;100270.19;2098707;28;20067;-68
2021/12/25 02:05:24;;;;;;;16.90;12.68;;;;;;;4.02;100.00;100270.19;2098928;28;20474;-68
2021/12/25 02:06:24;;;;;;;18.90;13.10;;;;;;;4.01;100.00;100271.09;2089989;28;20052;-68
2021/12/25 02:07:25;;;;;;;18.13;12.77;;;;;;;3.99;100.00;100268.53;2090005;28;20021;-68
2021/12/25 02:08:26;;;;;;;20.57;13.00;;;;;;;3.99;100.00;100268.53;2098805;28;20024;-68
2021/12/25 02:09:27;;;;;;;22.65;15.07;;;;;;;3.98;100.00;100271.16;2089884;28;20024;-68
2021/12/25 02:10:27;;;;;;;18.17;12.53;;;;;;;3.97;100.00;100274.63;2081647;28;20061;-67
2021/12/25 02:11:27;;;;;;;19.13;12.70;;;;;;;3.97;100.00;100269.47;2089905;28;20294;-67
2021/12/25 02:12:28;;;;;;;21.80;14.00;;;;;;;3.97;100.00;100269.47;2098076;28;20497;-67
2021/12/25 02:13:28;;;;;;;20.77;14.67;;;;;;;3.95;100.00;100274.66;2098848;28;20397;-68
2021/12/25 02:14:29;;;;;;;18.20;13.63;;;;;;;3.94;100.00;100269.53;2098829;28;20024;-68
2021/12/25 02:15:31;;;;;;;19.30;14.00;;;;;;;3.94;100.00;100270.34;2098759;28;20028;-68
2021/12/25 02:16:49;;;;;;;20.77;13.65;;;;;;;3.94;100.00;100275.53;2098757;28;20151;-68
2021/12/25 02:19:00;;;;;;;19.35;13.80;;;;;;;3.94;100.00;100279.84;2098930;28;20035;-68
2021/12/25 02:20:18;;;;;;;21.65;14.05;;;;;;;3.91;100.00;100264.44;2098679;28;20429;-67
2021/12/25 02:21:22;;;;;;;22.52;14.43;;;;;;;3.91;100.00;100273.03;2098714;28;20238;-67
2021/12/25 02:22:27;;;;;;;22.75;14.32;;;;;;;3.90;100.00;100267.91;2098660;28;20028;-67
2021/12/25 02:23:30;;;;;;;20.98;14.13;;;;;;;3.89;100.00;100267.03;2098711;28;20504;-68
2021/12/25 02:24:30;;;;;;;20.98;15.07;;;;;;;3.90;100.00;100266.16;2098609;28;20028;-68
2021/12/25 02:25:33;;;;;;;22.70;15.65;;;;;;;3.89;100.00;100274.78;2098703;28;20420;-68
2021/12/25 02:26:36;;;;;;;23.70;15.80;;;;;;;3.89;100.00;100271.34;2098653;28;20036;-68
2021/12/25 02:27:37;;;;;;;22.52;14.95;;;;;;;3.89;100.00;100272.22;2089516;28;20033;-68
2021/12/25 02:28:37;;;;;;;24.95;15.57;;;;;;;3.89;100.00;100271.34;2081474;28;20028;-68
2021/12/25 02:29:38;;;;;;;22.70;15.20;;;;;;;3.89;100.00;100266.19;2089802;28;20464;-68
2021/12/25 02:30:41;;;;;;;22.60;16.17;;;;;;;3.90;100.00;100278.22;2089728;28;20056;-68
2021/12/25 02:31:41;;;;;;;21.92;15.65;;;;;;;3.90;100.00;100267.91;2090090;28;20290;-69
2021/12/25 02:32:45;;;;;;;26.23;16.60;;;;;;;3.86;100.00;100267.97;2098622;28;20362;-68
2021/12/25 02:33:46;;;;;;;22.30;15.70;;;;;;;3.86;100.00;100275.72;2098582;28;20012;-68
2021/12/25 02:34:47;;;;;;;23.40;15.88;;;;;;;3.85;100.00;100268.88;2089778;28;20071;-68
2021/12/25 02:35:47;;;;;;;24.03;15.20;;;;;;;3.83;100.00;100260.28;2089843;28;20478;-68
2021/12/25 02:36:48;;;;;;;22.58;14.82;;;;;;;3.81;100.00;100264.66;2097815;28;20089;-68
2021/12/25 02:37:48;;;;;;;22.73;14.03;;;;;;;3.82;100.00;100265.50;2089524;28;20389;-68
2021/12/25 02:38:49;;;;;;;21.97;14.77;;;;;;;3.81;100.00;100263.81;2089736;28;20044;-68
2021/12/25 02:39:51;;;;;;;24.52;15.40;;;;;;;3.79;100.00;100265.56;2098558;28;20024;-68
2021/12/25 02:40:52;;;;;;;21.30;14.00;;;;;;;3.80;100.00;100264.69;2098551;28;20418;-68
2021/12/25 02:41:52;;;;;;;19.90;13.07;;;;;;;3.80;100.00;100268.09;2098670;28;20020;-68
2021/12/25 02:42:53;;;;;;;22.73;14.37;;;;;;;3.78;100.00;100280.22;2089570;28;20021;-68
2021/12/25 02:43:53;;;;;;;17.30;12.30;;;;;;;3.77;100.00;100277.66;2097848;28;20477;-69
2021/12/25 02:44:53;;;;;;;17.77;12.37;;;;;;;3.76;100.00;100273.41;2106246;28;20122;-68
2021/12/25 02:45:55;;;;;;;20.07;14.23;;;;;;;3.73;100.00;100272.56;2098572;28;20110;-68
2021/12/25 02:46:58;;;;;;;20.77;13.77;;;;;;;3.73;100.00;100276.91;2098606;28;20394;-68
2021/12/25 02:48:07;;;;;;;20.63;13.05;;;;;;;3.70;100.00;100282.97;2098513;28;20028;-68
2021/12/25 02:49:12;;;;;;;22.58;13.55;;;;;;;3.70;100.00;100274.38;2089539;28;20025;-68
2021/12/25 02:50:20;;;;;;;23.30;14.77;;;;;;;3.68;100.00;100276.13;2089682;28;20031;-68
2021/12/25 02:51:20;;;;;;;19.20;12.15;;;;;;;3.67;100.00;100274.44;2098120;28;20103;-68
2021/12/25 02:52:21;;;;;;;20.00;12.60;;;;;;;3.66;100.00;100275.34;2098459;28;20047;-68
2021/12/25 02:53:21;;;;;;;18.27;12.30;;;;;;;3.65;100.00;100278.78;2098429;28;20078;-67
2021/12/25 02:54:22;;;;;;;18.30;12.60;;;;;;;3.63;100.00;100273.69;2098431;28;20274;-67
2021/12/25 02:55:22;;;;;;;21.30;12.83;;;;;;;3.63;100.00;100280.56;2098421;28;20032;-68
2021/12/25 02:56:22;;;;;;;18.88;11.93;;;;;;;3.61;100.00;100272.84;2098415;28;20047;-68
2021/12/25 02:57:23;;;;;;;18.03;12.43;;;;;;;3.60;100.00;100279.75;2097662;28;20052;-68
2021/12/25 02:58:24;;;;;;;16.60;11.47;;;;;;;3.58;100.00;100273.78;2097858;28;20029;-68
2021/12/25 02:59:24;;;;;;;16.83;10.98;;;;;;;3.58;100.00;100278.94;2089416;28;20096;-68
2021/12/25 03:00:30;;;;;;;20.27;12.33;;;;;;;3.57;100.00;100272.09;2089506;28;20120;-67
2021/12/25 03:01:30;;;;;;;19.20;12.85;;;;;;;3.57;100.00;100277.25;2098279;28;20359;-67
2021/12/25 03:02:31;;;;;;;18.60;10.87;;;;;;;3.57;100.00;100277.25;2098348;28;20067;-67
2021/12/25 03:03:31;;;;;;;17.00;11.27;;;;;;;3.55;100.00;100272.97;2098346;28;20020;-67
2021/12/25 03:04:33;;;;;;;15.57;10.73;;;;;;;3.53;100.00;100279.91;2098396;28;20333;-68
2021/12/25 03:05:34;;;;;;;17.77;10.90;;;;;;;3.50;100.00;100275.69;2098264;28;20016;-69
2021/12/25 03:06:36;;;;;;;16.75;11.13;;;;;;;3.50;100.00;100278.25;2098251;28;20486;-68
2021/12/25 03:07:36;;;;;;;17.90;11.60;;;;;;;3.48;100.00;100277.44;2098280;28;20021;-68
2021/12/25 03:08:38;;;;;;;13.87;9.43;;;;;;;3.47;100.00;100280.91;2098294;28;20085;-68
2021/12/25 03:09:39;;;;;;;16.33;10.65;;;;;;;3.45;100.00;100282.66;2098249;28;20021;-68
2021/12/25 03:10:40;;;;;;;14.10;9.73;;;;;;;3.42;100.00;100283.56;2098263;28;20020;-68
2021/12/25 03:11:40;;;;;;;14.15;9.23;;;;;;;3.42;100.00;100285.31;2098340;28;20056;-67
2021/12/25 03:13:04;;;;;;;15.80;10.83;;;;;;;3.38;100.00;100283.69;2098294;28;20036;-68
2021/12/25 03:14:13;;;;;;;16.77;11.02;;;;;;;3.33;100.00;100279.47;2098234;28;20566;-68
2021/12/25 03:15:26;;;;;;;14.10;10.02;;;;;;;3.32;100.00;100282.09;2098307;28;20059;-68
2021/12/25 03:16:27;;;;;;;13.43;9.57;;;;;;;3.30;100.00;100284.69;2098244;28;20078;-68
2021/12/25 03:17:29;;;;;;;13.47;8.87;;;;;;;3.29;100.00;100274.41;2098193;28;20081;-69
2021/12/25 03:18:36;;;;;;;13.82;9.13;;;;;;;3.26;100.00;100292.53;2098252;28;20016;-68
2021/12/25 03:19:36;;;;;;;11.88;8.50;;;;;;;3.21;100.00;100288.31;2098226;28;20023;-68
2021/12/25 03:20:40;;;;;;;12.13;8.40;;;;;;;3.16;100.00;100285.00;2098260;28;20029;-68
2021/12/25 03:21:40;;;;;;;12.35;8.25;;;;;;;3.13;100.00;100299.66;2098202;28;20026;-68
2021/12/25 03:22:40;;;;;;;12.10;9.07;;;;;;;3.08;100.00;100297.19;2098300;28;20027;-67
2021/12/25 03:23:41;;;;;;;11.70;9.13;;;;;;;3.04;100.00;100304.13;2098231;28;20078;-68
2021/12/25 03:24:41;;;;;;;13.18;8.60;;;;;;;3.02;100.00;100297.31;2098198;28;20343;-69
2021/12/25 03:25:43;;;;;;;13.03;8.57;;;;;;;2.98;100.00;100299.09;2098135;28;20020;-68
2021/12/25 03:26:43;;;;;;;13.07;9.25;;;;;;;2.96;100.00;100295.69;2098250;28;20024;-69
2021/12/25 03:27:46;;;;;;;13.23;8.37;;;;;;;2.94;100.00;100307.75;2089155;28;20113;-68
2021/12/25 03:28:50;;;;;;;12.35;8.73;;;;;;;2.92;100.00;100309.53;2089537;28;20104;-68
2021/12/25 03:29:50;;;;;;;12.68;8.77;;;;;;;2.88;100.00;100308.75;2089279;28;20021;-68
2021/12/25 03:30:51;;;;;;;14.07;9.17;;;;;;;2.85;100.00;100307.94;2081044;28;20041;-68
2021/12/25 03:31:52;;;;;;;15.25;9.48;;;;;;;2.82;100.00;100309.72;2089419;28;20136;-69
2021/12/25 03:32:53;;;;;;;;;;;;;;;2.81;100.00;100307.97;2089727;28;20052;-68
2021/12/25 03:33:54;;;;;;;13.00;8.30;;;;;;;2.78;100.00;100308.06;2089309;28;19908;-68
2021/12/25 03:34:54;;;;;;;;;;;;;;;2.79;100.00;100314.91;2098104;28;20028;-68
2021/12/25 03:35:55;;;;;;;11.82;8.32;;;;;;;2.76;100.00;100309.81;2098278;28;19924;-67
2021/12/25 03:36:55;;;;;;;14.60;8.80;;;;;;;2.72;100.00;100310.75;2089245;28;20033;-67
2021/12/25 03:37:56;;;;;;;13.23;9.63;;;;;;;2.70;100.00;100315.06;2089121;28;20033;-67
2021/12/25 03:38:56;;;;;;;15.30;10.13;;;;;;;2.69;100.00;100313.38;2097637;28;20024;-67
2021/12/25 03:39:57;;;;;;;19.43;11.17;;;;;;;2.68;100.00;100322.84;2098243;28;20024;-66
2021/12/25 03:40:59;;;;;;;16.30;11.00;;;;;;;2.68;100.00;100316.84;2089269;28;20037;-67
2021/12/25 03:41:59;;;;;;;15.50;10.25;;;;;;;2.67;100.00;100312.56;2081114;28;20037;-68
2021/12/25 03:43:00;;;;;;;17.47;11.13;;;;;;;2.64;100.00;100312.63;2089311;28;20068;-68
2021/12/25 03:44:01;;;;;;;15.05;10.95;;;;;;;2.63;100.00;100310.91;2098202;28;20025;-69
2021/12/25 03:45:01;;;;;;;16.15;10.65;;;;;;;2.64;100.00;100322.91;2098256;28;20016;-66
2021/12/25 03:46:02;;;;;;;15.10;10.97;;;;;;;2.61;100.00;100320.38;2098229;28;20031;-67
2021/12/25 03:47:12;;;;;;;16.48;10.38;;;;;;;2.60;100.00;100318.69;2098235;28;20036;-68
2021/12/25 03:49:02;;;;;;;15.80;10.07;;;;;;;2.57;100.00;100317.84;2089332;28;20502;-67
2021/12/25 03:53:07;;;;;;;13.43;9.13;;;;;;;2.58;100.00;100311.00;2084946;28;20040;-68
2021/12/25 03:57:37;;;;;;;13.13;9.55;;;;;;;2.45;100.00;100320.66;2098202;28;20033;-67
2021/12/25 03:57:51;;;;;;;13.88;7.70;;;;;;;2.29;100.00;100320.91;2098054;28;20343;-67
2021/12/25 03:58:53;;;;;;;12.93;8.40;;;;;;;2.24;100.00;100324.44;2098334;28;20021;-67
2021/12/25 03:59:59;;;;;;;13.45;8.68;;;;;;;2.20;100.00;100336.50;2098233;28;20093;-67
2021/12/25 04:01:14;;;;;;;11.65;8.15;;;;;;;2.17;100.00;100331.41;2098226;28;20029;-67
2021/12/25 04:02:20;;;;;;;12.05;7.82;;;;;;;2.14;100.00;100327.16;2099136;28;20074;-67
2021/12/25 04:03:28;;;;;;;11.75;7.85;;;;;;;2.13;100.00;100328.03;2099771;28;20024;-68
2021/12/25 04:04:35;;;;;;;11.82;7.85;;;;;;;2.12;100.00;100328.06;2099699;28;20032;-68
2021/12/25 04:05:39;;;;;;;11.85;8.82;;;;;;;2.06;100.00;100332.41;2099808;28;20036;-69
2021/12/25 04:06:47;;;;;;;11.95;8.07;;;;;;;2.00;100.00;100334.25;2099726;28;20490;-67
2021/12/25 04:08:07;;;;;;;10.60;7.70;;;;;;;1.95;100.00;100336.03;2099781;28;20525;-67
2021/12/25 04:09:14;;;;;;;12.00;9.05;;;;;;;1.92;100.00;100334.38;2099753;28;20032;-68
2021/12/25 04:10:15;;;;;;;13.43;9.48;;;;;;;1.91;100.00;100337.78;2090740;28;20036;-68
2021/12/25 04:11:26;;;;;;;13.52;9.25;;;;;;;1.89;100.00;100339.56;2090876;28;20025;-67
2021/12/25 04:12:27;;;;;;;13.65;8.60;;;;;;;1.87;100.00;100337.00;2099861;28;20024;-68
2021/12/25 04:13:27;;;;;;;10.80;8.37;;;;;;;1.86;100.00;100347.31;2099738;28;20032;-67
2021/12/25 04:14:27;;;;;;;10.77;7.63;;;;;;;1.84;100.00;100338.78;2099655;28;20069;-68
2021/12/25 04:15:28;;;;;;;12.67;8.93;;;;;;;1.82;100.00;100343.09;2099709;28;20020;-68
2021/12/25 04:16:28;;;;;;;14.23;9.47;;;;;;;1.82;100.00;100345.66;2099740;28;20055;-68
2021/12/25 04:17:28;;;;;;;12.57;8.57;;;;;;;1.82;100.00;100340.50;2099607;28;20097;-69
2021/12/25 04:18:28;;;;;;;11.47;7.73;;;;;;;1.80;100.00;100343.97;2099723;28;20032;-69
2021/12/25 04:19:29;;;;;;;11.53;8.73;;;;;;;1.79;100.00;100347.38;2099707;28;20474;-69
2021/12/25 04:20:31;;;;;;;11.93;8.25;;;;;;;1.76;100.00;100347.44;2099678;28;20064;-69
2021/12/25 04:21:31;;;;;;;13.43;9.27;;;;;;;1.75;100.00;100350.88;2099651;28;20085;-69
2021/12/25 04:22:42;;;;;;;12.43;9.43;;;;;;;1.71;100.00;100353.53;2099728;28;20458;-68
2021/12/25 04:23:44;;;;;;;11.18;8.27;;;;;;;1.71;100.00;100353.53;2099849;28;20091;-69
2021/12/25 04:24:46;;;;;;;11.85;8.18;;;;;;;1.67;100.00;100357.84;2090654;28;20021;-69
2021/12/25 04:25:46;;;;;;;11.73;8.13;;;;;;;1.66;100.00;100345.88;2090917;28;20401;-69
2021/12/25 04:26:48;;;;;;;12.10;8.47;;;;;;;1.65;100.00;100345.00;2099315;28;20021;-68
2021/12/25 04:27:49;;;;;;;12.63;8.60;;;;;;;1.64;100.00;100348.44;2099603;28;20024;-68
2021/12/25 04:29:04;;;;;;;12.23;9.37;;;;;;;1.64;100.00;100348.44;2099629;28;20350;-68
2021/12/25 04:30:18;;;;;;;12.65;9.48;;;;;;;1.65;100.00;100354.47;2099543;28;20366;-67
2021/12/25 05:02:09;;;;;;;12.65;8.60;;;;;;;1.08;100.00;100384.25;2099473;28;20048;-69
2021/12/25 05:04:37;;;;;;;13.50;9.27;;;;;;;0.99;100.00;100391.19;2099516;28;20044;-70
2021/12/25 05:05:39;;;;;;;13.02;9.10;;;;;;;0.99;100.00;100388.63;2099293;28;20401;-70
2021/12/25 05:06:39;;;;;;;11.57;8.38;;;;;;;0.97;100.00;100392.94;2099325;28;20024;-70
2021/12/25 05:07:39;;;;;;;12.77;9.53;;;;;;;0.96;100.00;100396.34;2099364;28;20046;-70
2021/12/25 05:08:39;;;;;;;13.87;8.97;;;;;;;0.92;100.00;100394.69;2090416;28;20021;-70
2021/12/25 05:09:40;;;;;;;12.57;9.10;;;;;;;0.90;100.00;100392.13;2090475;28;20025;-70
2021/12/25 05:10:40;;;;;;;14.87;9.43;;;;;;;0.89;100.00;100394.72;2099319;28;20013;-68
2021/12/25 05:11:41;;;;;;;12.93;9.67;;;;;;;0.85;100.00;100398.16;2099332;28;20498;-69
2021/12/25 05:12:41;;;;;;;12.37;9.03;;;;;;;0.82;100.00;100393.06;2099278;28;20027;-70
2021/12/25 05:13:43;;;;;;;13.07;8.90;;;;;;;0.77;100.00;100404.25;2098375;28;20501;-70
2021/12/25 05:14:44;;;;;;;11.88;9.02;;;;;;;0.74;100.00;100400.84;2099283;28;20017;-70
2021/12/25 05:15:46;;;;;;;13.07;9.10;;;;;;;0.69;100.00;100400.03;2099210;28;20020;-70
2021/12/25 05:16:47;;;;;;;12.15;9.20;;;;;;;0.65;100.00;100401.75;2090398;28;20017;-70
2021/12/25 05:17:47;;;;;;;12.70;9.05;;;;;;;0.61;100.00;100407.78;2090303;28;20109;-70
2021/12/25 05:18:50;;;;;;;13.63;10.17;;;;;;;0.59;100.00;100402.69;2098760;28;20016;-70
2021/12/25 05:19:50;;;;;;;12.40;9.25;;;;;;;0.53;100.00;100404.44;2099209;28;20156;-70
2021/12/25 05:20:50;;;;;;;14.93;8.90;;;;;;;0.50;100.00;100403.59;2099381;28;20024;-70
2021/12/25 05:21:51;;;;;;;11.00;8.73;;;;;;;0.43;100.00;100407.09;2090328;28;20537;-70
2021/12/25 05:22:51;;;;;;;12.10;8.88;;;;;;;0.44;100.00;100402.81;2090276;28;20044;-69
2021/12/25 05:23:52;;;;;;;13.23;9.53;;;;;;;0.42;100.00;100407.09;2090297;28;20509;-69
2021/12/25 05:24:52;;;;;;;13.90;9.63;;;;;;;0.40;100.00;100404.53;2090443;28;20019;-70
2021/12/25 05:25:53;;;;;;;12.55;8.60;;;;;;;0.38;100.00;100409.66;2090291;28;20036;-68
2021/12/25 05:26:57;;;;;;;13.50;8.82;;;;;;;0.36;100.00;100405.41;2090293;28;20033;-68
2021/12/25 05:27:59;;;;;;;13.05;8.88;;;;;;;0.32;100.00;100414.00;2099052;28;20436;-69
2021/12/25 05:29:01;;;;;;;11.57;8.48;;;;;;;0.27;100.00;100410.63;2099101;28;20036;-68
2021/12/25 05:30:03;;;;;;;13.90;10.35;;;;;;;0.20;100.00;100413.22;2099184;28;20100;-69
2021/12/25 05:31:04;;;;;;;11.85;9.00;;;;;;;0.16;100.00;100415.81;2099218;28;20418;-68
2021/12/25 05:32:04;;;;;;;13.68;9.93;;;;;;;0.12;100.00;100413.28;2099069;28;20085;-67
2021/12/25 05:33:04;;;;;;;12.67;9.07;;;;;;;0.12;100.00;100412.41;2099225;28;20482;-68
2021/12/25 05:34:05;;;;;;;13.27;9.13;;;;;;;0.08;100.00;100415.88;2099095;28;20095;-68
2021/12/25 05:35:05;;;;;;;14.23;9.93;;;;;;;0.05;100.00;100410.75;2099171;28;20062;-67
2021/12/25 05:36:06;;;;;;;13.37;9.37;;;;;;;0.03;100.00;100412.47;2099098;28;20473;-68
2021/12/25 05:37:07;;;;;;;11.23;8.52;;;;;;;0.02;100.00;100415.88;2099087;28;20435;-67
2021/12/25 05:38:13;;;;;;;14.38;9.80;;;;;;;-0.02;100.00;100415.94;2099141;28;20033;-66
2021/12/25 05:39:14;;;;;;;12.13;8.75;;;;;;;-0.03;100.00;100414.19;2099039;28;20402;-67
2021/12/25 05:40:15;;;;;;;;;;;;;;;-0.02;100.00;100417.63;2090592;28;20021;-66
2021/12/25 05:41:15;;;;;;;12.88;8.65;;;;;;;-0.04;100.00;100411.63;2090250;28;19936;-66
2021/12/25 05:42:22;;;;;;;12.23;8.18;;;;;;;-0.05;100.00;100415.94;2099103;28;20037;-67
2021/12/25 05:43:23;;;;;;;14.05;8.93;;;;;;;-0.06;100.00;100419.38;2099077;28;20025;-66
2021/12/25 05:44:23;;;;;;;13.83;8.90;;;;;;;-0.07;100.00;100420.22;2099130;28;20025;-67
2021/12/25 05:45:23;;;;;;;11.77;8.23;;;;;;;-0.08;100.00;100420.22;2090128;28;20029;-67
2021/12/25 05:46:24;;;;;;;11.73;8.57;;;;;;;-0.11;100.00;100428.78;2090110;28;20036;-67
2021/12/25 05:47:26;;;;;;;11.77;8.45;;;;;;;-0.13;100.00;100422.81;2090258;28;20029;-67
2021/12/25 05:48:26;;;;;;;12.52;8.63;;;;;;;-0.14;100.00;100426.22;2099090;28;20458;-67
2021/12/25 05:49:27;;;;;;;11.23;7.63;;;;;;;-0.16;100.00;100426.25;2099065;28;20032;-66
2021/12/25 05:50:27;;;;;;;12.80;9.32;;;;;;;-0.17;100.00;100421.97;2099054;28;20029;-66